Time;durP1;ratioP1;P1;durP2;ratioP2;P2;SDS_P1;SDS_P2;PMS_P1;PMS_P2;Temp;Humidity;BMP_temperature;BMP_pressure;BME280_temperature;BME280_humidity;BME280_pressure;Samples;Min_cycle;Max_cycle;Signal;HPM_P1;HPM_P2
2022/04/10 00:00:43;;;;;;;;;1.25;1.25;;;;;15.99;51.32;101886.34;5068845;28;8887;-68
2022/04/10 00:03:09;;;;;;;;;2.00;2.00;;;;;15.97;51.37;101888.06;5070736;28;8849;-67
2022/04/10 00:05:35;;;;;;;;;3.50;2.75;;;;;15.95;51.07;101878.38;5069991;28;8879;-67
2022/04/10 00:08:00;;;;;;;;;3.00;2.00;;;;;15.99;51.15;101888.97;5069850;28;9578;-67
2022/04/10 00:10:26;;;;;;;;;4.25;3.25;;;;;15.94;51.27;101887.16;5070289;28;8805;-67
2022/04/10 00:12:51;;;;;;;;;3.25;2.25;;;;;15.99;50.98;101887.22;5069704;28;8889;-68
2022/04/10 00:15:17;;;;;;;;;2.00;1.75;;;;;15.97;50.78;101885.44;5070092;28;8818;-67
2022/04/10 00:17:42;;;;;;;;;3.00;2.00;;;;;16.03;51.01;101885.53;5070677;28;8798;-67
2022/04/10 00:20:09;;;;;;;;;5.75;1.50;;;;;15.98;50.61;101881.91;5070698;28;8798;-67
2022/04/10 00:22:48;;;;;;;;;3.00;2.00;;;;;15.98;50.73;101879.28;5068988;28;8800;-67
2022/04/10 00:25:15;;;;;;;;;3.25;3.25;;;;;15.95;50.73;101878.38;5070739;28;9518;-68
2022/04/10 00:27:41;;;;;;;;;3.50;1.75;;;;;15.95;50.64;101882.78;5071134;28;9407;-67
2022/04/10 00:30:11;;;;;;;;;3.00;2.00;;;;;15.93;50.92;101880.09;5069673;28;9432;-67
2022/04/10 00:32:37;;;;;;;;;2.00;2.00;;;;;15.96;50.74;101884.56;5069442;28;11546;-68
2022/04/10 00:35:05;;;;;;;;;3.00;3.00;;;;;16.01;50.71;101877.59;5069486;28;9491;-68
2022/04/10 00:37:31;;;;;;;;;2.75;2.00;;;;;15.99;50.54;101875.81;5069780;28;8787;-68
2022/04/10 00:39:56;;;;;;;;;2.75;2.75;;;;;15.91;50.42;101873.94;5070286;28;9497;-68
2022/04/10 00:42:21;;;;;;;;;2.25;2.25;;;;;15.94;50.60;101873.09;5068582;28;8796;-68
2022/04/10 00:44:47;;;;;;;;;4.00;3.00;;;;;15.94;50.66;101879.25;5070307;28;8800;-67
2022/04/10 00:47:12;;;;;;;;;2.25;2.25;;;;;15.93;50.42;101877.47;5070520;28;8818;-68
2022/04/10 00:49:38;;;;;;;;;2.00;2.00;;;;;15.94;50.31;101879.25;5069372;28;8877;-67
2022/04/10 00:52:09;;;;;;;;;0.33;0.33;;;;;15.96;50.17;101874.00;5068706;28;9694;-67
2022/04/10 00:54:34;;;;;;;;;2.25;2.25;;;;;15.89;50.40;101873.03;5070519;28;8871;-67
2022/04/10 00:57:01;;;;;;;;;2.00;2.00;;;;;15.90;50.34;101873.91;5068948;28;9412;-67
2022/04/10 00:59:30;;;;;;;;;2.25;1.75;;;;;15.93;50.14;101866.94;5070385;28;8842;-68
2022/04/10 01:01:55;;;;;;;;;1.00;1.00;;;;;15.91;50.02;101873.94;5068692;28;9323;-67
2022/04/10 01:04:21;;;;;;;;;3.00;2.00;;;;;15.92;50.18;101869.56;5069093;28;9410;-67
2022/04/10 01:06:48;;;;;;;;;2.50;1.00;;;;;15.91;50.10;101873.03;5069760;28;8922;-67
2022/04/10 01:09:14;;;;;;;;;3.00;3.00;;;;;15.91;50.15;101880.94;5069972;28;8826;-67
2022/04/10 01:11:39;;;;;;;;;2.00;1.00;;;;;15.95;49.75;101878.38;5067860;28;9415;-67
2022/04/10 01:14:05;;;;;;;;;1.67;0.33;;;;;15.92;49.73;101882.72;5069645;28;9347;-68
2022/04/10 01:16:31;;;;;;;;;2.00;2.00;;;;;15.94;49.88;101883.63;5070364;28;8846;-69
2022/04/10 01:19:00;;;;;;;;;1.00;1.00;;;;;15.92;49.70;101880.09;5069065;28;8803;-68
2022/04/10 01:21:27;;;;;;;;;1.50;1.00;;;;;15.91;49.81;101880.94;5068929;28;8787;-67
2022/04/10 01:23:54;;;;;;;;;0.67;0.67;;;;;15.92;49.91;101883.63;5069404;28;9538;-67
2022/04/10 01:26:24;;;;;;;;;1.00;1.00;;;;;15.90;49.76;101885.31;5069448;28;9270;-67
2022/04/10 01:29:05;;;;;;;;;1.00;1.00;;;;;15.89;49.84;101887.94;5069441;28;9271;-67
2022/04/10 01:31:33;;;;;;;;;1.00;0.33;;;;;15.90;49.57;101887.06;5067733;28;9266;-68
2022/04/10 01:34:07;;;;;;;;;1.00;1.00;;;;;15.88;49.42;101881.78;5070098;28;9325;-68
2022/04/10 01:36:34;;;;;;;;;1.67;0.67;;;;;15.88;49.74;101889.69;5069850;28;9191;-68
2022/04/10 01:39:02;;;;;;;;;1.00;1.00;;;;;15.90;49.48;101893.22;5069167;28;9197;-68
2022/04/10 01:41:28;;;;;;;;;4.00;2.33;;;;;15.89;49.47;101894.09;5068395;28;9428;-68
2022/04/10 01:43:55;;;;;;;;;0.33;0.33;;;;;15.85;49.57;101888.75;5068092;28;9324;-67
2022/04/10 01:46:23;;;;;;;;;0.33;0.33;;;;;15.85;49.37;101894.91;5068604;28;9277;-67
2022/04/10 01:48:49;;;;;;;;;1.00;1.00;;;;;15.85;49.41;101897.53;5067039;28;9192;-67
2022/04/10 01:51:15;;;;;;;;;1.00;0.33;;;;;15.89;49.19;101894.09;5067838;28;9255;-67
2022/04/10 01:53:41;;;;;;;;;1.00;1.00;;;;;15.86;49.12;101898.41;5069234;28;8813;-68
2022/04/10 01:56:08;;;;;;;;;1.00;0.00;;;;;15.87;49.27;101894.91;5069236;28;9487;-67
2022/04/10 01:58:38;;;;;;;;;3.00;1.00;;;;;15.85;49.12;101900.19;5069372;28;10344;-67
2022/04/10 02:01:06;;;;;;;;;0.00;0.00;;;;;15.87;49.05;101902.81;5066484;28;9529;-68
2022/04/10 02:03:31;;;;;;;;;0.33;0.33;;;;;15.84;49.08;101897.50;5069407;28;9977;-68
2022/04/10 02:05:57;;;;;;;;;1.00;1.00;;;;;15.83;49.19;101899.25;5068994;28;9203;-69
2022/04/10 02:08:23;;;;;;;;;1.00;1.00;;;;;15.85;49.02;101902.81;5068990;28;8807;-67
2022/04/10 02:10:48;;;;;;;;;0.67;0.67;;;;;15.83;49.10;101906.25;5067192;28;11397;-69
2022/04/10 02:13:13;;;;;;;;;0.00;0.00;;;;;15.87;48.92;101908.97;5068027;28;8790;-68
2022/04/10 02:15:39;;;;;;;;;0.00;0.00;;;;;15.83;49.03;101909.78;5068237;28;8921;-68
2022/04/10 02:18:05;;;;;;;;;2.00;1.00;;;;;15.87;48.94;101906.34;5068859;28;8817;-68
2022/04/10 02:20:34;;;;;;;;;0.00;0.00;;;;;15.86;48.64;101906.31;5068384;28;9544;-68
2022/04/10 02:22:59;;;;;;;;;1.00;1.00;;;;;15.84;48.73;101906.31;5066491;28;10133;-68
2022/04/10 02:25:25;;;;;;;;;2.00;1.00;;;;;15.86;48.82;101912.47;5069189;28;9181;-69
2022/04/10 02:27:50;;;;;;;;;1.00;0.00;;;;;15.88;48.69;101912.50;5068400;28;8800;-67
2022/04/10 02:30:18;;;;;;;;;0.00;0.00;;;;;15.81;48.71;101916.78;5069435;28;8795;-69
2022/04/10 02:32:43;;;;;;;;;0.33;0.33;;;;;15.88;48.55;101913.41;5067183;28;10061;-69
2022/04/10 02:35:09;;;;;;;;;0.33;0.33;;;;;15.81;48.77;101919.41;5068937;28;9192;-68
2022/04/10 02:37:35;;;;;;;;;1.33;1.33;;;;;15.83;48.76;101909.78;5069173;28;8787;-69
2022/04/10 02:40:00;;;;;;;;;1.67;0.67;;;;;15.83;48.50;101909.78;5068982;28;8835;-68
2022/04/10 02:42:27;;;;;;;;;1.00;1.00;;;;;15.84;48.50;101908.03;5066558;28;9274;-68
2022/04/10 02:44:53;;;;;;;;;0.00;0.00;;;;;15.82;48.75;101910.63;5068896;28;8819;-68
2022/04/10 02:47:18;;;;;;;;;1.00;0.00;;;;;15.85;48.24;101907.19;5069426;28;9293;-68
2022/04/10 02:49:44;;;;;;;;;0.00;0.00;;;;;15.80;48.43;101911.47;5068340;28;8803;-68
2022/04/10 02:52:09;;;;;;;;;1.33;0.33;;;;;15.81;48.67;101914.16;5066659;28;8874;-69
2022/04/10 02:54:34;;;;;;;;;0.00;0.00;;;;;15.84;48.18;101910.69;5069066;28;8853;-68
2022/04/10 02:57:00;;;;;;;;;2.00;0.00;;;;;15.80;48.41;101920.28;5068016;28;8937;-68
2022/04/10 02:59:25;;;;;;;;;0.00;0.00;;;;;15.83;48.30;101922.06;5068702;28;8851;-69
2022/04/10 03:01:56;;;;;;;;;1.00;0.00;;;;;15.80;48.29;101924.66;5070161;28;8906;-67
2022/04/10 03:04:22;;;;;;;;;1.00;0.00;;;;;15.82;48.23;101923.81;5072056;28;8868;-68
2022/04/10 03:06:47;;;;;;;;;0.00;0.00;;;;;15.79;48.04;101918.50;5071921;28;9315;-68
2022/04/10 03:09:12;;;;;;;;;1.00;0.33;;;;;15.80;48.06;101919.38;5072664;28;8842;-67
2022/04/10 03:11:38;;;;;;;;;0.00;0.00;;;;;15.76;48.15;101921.06;5069205;28;8834;-68
2022/04/10 03:14:03;;;;;;;;;0.00;0.00;;;;;15.79;48.36;101925.50;5071877;28;8783;-68
2022/04/10 03:16:28;;;;;;;;;0.00;0.00;;;;;15.78;48.20;101929.88;5072311;28;8825;-68
2022/04/10 03:18:54;;;;;;;;;0.00;0.00;;;;;15.81;47.87;101927.31;5071052;28;9609;-68
2022/04/10 03:21:19;;;;;;;;;0.00;0.00;;;;;15.79;48.10;101925.50;5069304;28;8834;-68
2022/04/10 03:23:45;;;;;;;;;0.00;0.00;;;;;15.81;47.82;101929.94;5071064;28;8819;-68
2022/04/10 03:26:10;;;;;;;;;1.00;0.00;;;;;15.79;47.99;101928.13;5072036;28;8822;-67
2022/04/10 03:28:35;;;;;;;;;0.00;0.00;;;;;15.74;48.11;101928.06;5071437;28;8806;-68
2022/04/10 03:31:01;;;;;;;;;1.00;0.00;;;;;15.78;47.98;101936.91;5068607;28;8819;-68
2022/04/10 03:33:26;;;;;;;;;0.00;0.00;;;;;15.77;47.92;101937.75;5071884;28;8808;-68
2022/04/10 03:35:55;;;;;;;;;0.00;0.00;;;;;15.82;47.84;101944.00;5071231;28;10015;-69
2022/04/10 03:38:21;;;;;;;;;0.00;0.00;;;;;15.82;47.63;101941.38;5071166;28;8877;-69
2022/04/10 03:40:47;;;;;;;;;1.00;0.00;;;;;15.76;47.75;101939.50;5070258;28;9344;-69
2022/04/10 03:43:15;;;;;;;;;0.33;0.00;;;;;15.81;47.57;101940.50;5070386;28;9384;-69
2022/04/10 03:45:41;;;;;;;;;0.33;0.33;;;;;15.80;47.61;101935.19;5071471;28;8815;-69
2022/04/10 03:48:07;;;;;;;;;0.00;0.00;;;;;15.77;47.72;101943.03;5071605;28;9191;-69
2022/04/10 03:50:34;;;;;;;;;0.00;0.00;;;;;15.76;47.74;101950.03;5071616;28;9294;-69
2022/04/10 03:53:00;;;;;;;;;0.00;0.00;;;;;15.75;47.76;101948.25;5068577;28;8814;-68
2022/04/10 03:55:25;;;;;;;;;0.67;0.67;;;;;15.73;47.67;101944.72;5071382;28;9254;-69
2022/04/10 03:57:51;;;;;;;;;0.00;0.00;;;;;15.75;47.86;101945.63;5071061;28;9425;-67
2022/04/10 04:00:16;;;;;;;;;0.00;0.00;;;;;15.74;47.70;101946.50;5070535;28;8795;-68
2022/04/10 04:02:42;;;;;;;;;0.00;0.00;;;;;15.81;47.57;101958.91;5069015;28;9564;-69
2022/04/10 04:05:08;;;;;;;;;0.00;0.00;;;;;15.74;47.42;101953.50;5070965;28;9654;-67
2022/04/10 04:07:33;;;;;;;;;0.00;0.00;;;;;15.75;47.29;101956.16;5070118;28;8810;-68
2022/04/10 04:10:02;;;;;;;;;0.00;0.00;;;;;15.76;47.52;101955.31;5070682;28;8802;-68
2022/04/10 04:12:27;;;;;;;;;0.00;0.00;;;;;15.73;47.40;101954.38;5067933;28;8913;-69
2022/04/10 04:14:52;;;;;;;;;0.00;0.00;;;;;15.72;47.58;101964.00;5069955;28;9229;-70
2022/04/10 04:17:18;;;;;;;;;0.00;0.00;;;;;15.76;47.22;101963.19;5070656;28;8843;-67
2022/04/10 04:19:43;;;;;;;;;0.00;0.00;;;;;15.72;47.45;101957.84;5070825;28;8829;-68
2022/04/10 04:22:10;;;;;;;;;0.00;0.00;;;;;15.71;47.42;101956.09;5067775;28;8861;-68
2022/04/10 04:24:35;;;;;;;;;0.00;0.00;;;;;15.76;47.42;101962.31;5070440;28;9520;-69
2022/04/10 04:27:00;;;;;;;;;0.00;0.00;;;;;15.72;47.34;101964.00;5069555;28;9270;-68
2022/04/10 04:29:25;;;;;;;;;0.00;0.00;;;;;15.70;47.46;101960.47;5071022;28;8954;-68
2022/04/10 04:31:51;;;;;;;;;0.00;0.00;;;;;15.73;47.23;101965.78;5067828;28;8816;-69
2022/04/10 04:34:16;;;;;;;;;0.00;0.00;;;;;15.77;47.22;101969.38;5069020;28;8843;-68
2022/04/10 04:36:41;;;;;;;;;0.33;0.00;;;;;15.73;47.17;101962.25;5070873;28;9536;-68
2022/04/10 04:39:07;;;;;;;;;0.00;0.00;;;;;15.66;47.45;101974.44;5070267;28;8853;-68
2022/04/10 04:41:32;;;;;;;;;1.00;0.00;;;;;15.74;47.15;101972.84;5067936;28;8814;-68
2022/04/10 04:43:57;;;;;;;;;0.00;0.00;;;;;15.75;46.95;101984.22;5070193;28;8771;-68
2022/04/10 04:46:23;;;;;;;;;0.00;0.00;;;;;15.72;47.00;101979.81;5069831;28;8796;-68
2022/04/10 04:48:48;;;;;;;;;0.00;0.00;;;;;15.73;47.09;101981.59;5069185;28;8803;-68
2022/04/10 04:51:17;;;;;;;;;1.00;1.00;;;;;15.73;47.04;101989.47;5067894;28;8848;-69
2022/04/10 04:53:42;;;;;;;;;0.67;0.00;;;;;15.69;46.94;101985.00;5069539;28;8826;-68
2022/04/10 04:56:08;;;;;;;;;0.00;0.00;;;;;15.70;47.01;101989.44;5069424;28;9404;-68
2022/04/10 04:58:33;;;;;;;;;0.00;0.00;;;;;15.69;46.77;101990.28;5070167;28;8807;-68
2022/04/10 05:00:59;;;;;;;;;0.00;0.00;;;;;15.68;47.00;101988.50;5067309;28;8804;-68
2022/04/10 05:03:24;;;;;;;;;0.00;0.00;;;;;15.74;46.89;101996.53;5069478;28;8803;-69
2022/04/10 05:05:49;;;;;;;;;0.00;0.00;;;;;15.72;46.78;101992.97;5069910;28;9542;-69
2022/04/10 05:08:15;;;;;;;;;0.00;0.00;;;;;15.70;46.75;101992.06;5069256;28;8814;-69
2022/04/10 05:10:40;;;;;;;;;0.00;0.00;;;;;15.68;46.96;101996.41;5068638;28;8792;-68
2022/04/10 05:13:07;;;;;;;;;0.00;0.00;;;;;15.69;47.04;101992.91;5067380;28;9649;-68
2022/04/10 05:15:33;;;;;;;;;0.00;0.00;;;;;15.71;46.64;101998.22;5069441;28;8819;-68
2022/04/10 05:17:58;;;;;;;;;0.00;0.00;;;;;15.68;46.80;102009.56;5069022;28;9423;-68
2022/04/10 05:20:23;;;;;;;;;0.00;0.00;;;;;15.67;46.73;102010.41;5069963;28;9587;-68
2022/04/10 05:22:48;;;;;;;;;0.00;0.00;;;;;15.70;46.83;102010.50;5066885;28;8897;-67
2022/04/10 05:25:14;;;;;;;;;0.00;0.00;;;;;15.69;46.64;102011.34;5069171;28;8811;-68
2022/04/10 05:27:39;;;;;;;;;0.00;0.00;;;;;15.69;46.70;102007.81;5069934;28;8787;-68
2022/04/10 05:30:05;;;;;;;;;0.00;0.00;;;;;15.65;46.61;102013.88;5069456;28;8803;-68
2022/04/10 05:32:30;;;;;;;;;0.00;0.00;;;;;15.68;46.63;102012.19;5066587;28;8911;-68
2022/04/10 05:34:56;;;;;;;;;0.00;0.00;;;;;15.67;46.73;102017.44;5069457;28;9836;-68
2022/04/10 05:37:21;;;;;;;;;0.00;0.00;;;;;15.71;46.34;102020.13;5068499;28;8850;-68
2022/04/10 05:39:46;;;;;;;;;0.00;0.00;;;;;15.65;46.63;102021.78;5069339;28;9595;-70
2022/04/10 05:42:11;;;;;;;;;0.00;0.00;;;;;15.68;46.29;102021.84;5067289;28;8835;-69
2022/04/10 05:44:37;;;;;;;;;0.00;0.00;;;;;15.64;46.69;102015.63;5068335;28;8823;-69
2022/04/10 05:47:02;;;;;;;;;0.00;0.00;;;;;15.67;46.63;102033.25;5069092;28;8807;-70
2022/04/10 05:49:28;;;;;;;;;0.00;0.00;;;;;15.60;46.49;102031.31;5069440;28;8964;-69
2022/04/10 05:51:53;;;;;;;;;0.00;0.00;;;;;15.64;46.50;102031.41;5066088;28;8837;-69
2022/04/10 05:54:19;;;;;;;;;0.00;0.00;;;;;15.71;46.34;102045.63;5069434;28;8830;-68
2022/04/10 05:56:44;;;;;;;;;0.00;0.00;;;;;15.67;46.34;102042.00;5069064;28;8811;-68
2022/04/10 05:59:09;;;;;;;;;0.00;0.00;;;;;15.69;46.40;102048.19;5068348;28;8938;-68
2022/04/10 06:01:40;;;;;;;;;0.00;0.00;;;;;15.69;46.54;102055.22;5067450;28;8811;-69
2022/04/10 06:04:06;;;;;;;;;0.00;0.00;;;;;15.70;46.28;102060.50;5068769;28;8764;-68
2022/04/10 06:06:31;;;;;;;;;1.00;1.00;;;;;15.70;46.22;102060.50;5069167;28;10239;-69
2022/04/10 06:08:56;;;;;;;;;0.00;0.00;;;;;15.70;46.19;102063.16;5069422;28;8777;-68
2022/04/10 06:11:21;;;;;;;;;0.00;0.00;;;;;15.74;46.15;102067.63;5070036;28;8887;-69
2022/04/10 06:13:47;;;;;;;;;0.00;0.00;;;;;15.75;46.23;102089.53;5068508;28;8775;-69
2022/04/10 06:16:12;;;;;;;;;0.00;0.00;;;;;15.78;46.24;102098.41;5069648;28;8804;-69
2022/04/10 06:18:37;;;;;;;;;0.00;0.00;;;;;15.75;46.21;102090.44;5069659;28;8791;-69
2022/04/10 06:21:03;;;;;;;;;0.00;0.00;;;;;15.78;46.15;102103.66;5068650;28;9534;-69
2022/04/10 06:23:28;;;;;;;;;0.00;0.00;;;;;15.77;46.25;102101.03;5069332;28;8779;-69
2022/04/10 06:25:59;;;;;;;;;0.00;0.00;;;;;15.75;46.16;102098.34;5069566;28;8803;-69
2022/04/10 06:28:25;;;;;;;;;0.00;0.00;;;;;15.76;45.94;102100.13;5068870;28;8797;-68
2022/04/10 06:30:50;;;;;;;;;0.00;0.00;;;;;15.79;46.19;102102.81;5069176;28;9379;-68
2022/04/10 06:33:18;;;;;;;;;0.00;0.00;;;;;15.80;45.92;102104.59;5069533;28;8783;-68
2022/04/10 06:35:44;;;;;;;;;0.00;0.00;;;;;15.76;46.23;102105.38;5070642;28;8760;-68
2022/04/10 06:38:10;;;;;;;;;0.00;0.00;;;;;15.75;46.23;102103.59;5073589;28;9152;-68
2022/04/10 06:40:36;;;;;;;;;0.00;0.00;;;;;15.76;46.03;102108.03;5072925;28;9194;-68
2022/04/10 06:43:05;;;;;;;;;0.00;0.00;;;;;15.79;46.12;102113.34;5073023;28;8806;-68
2022/04/10 06:45:30;;;;;;;;;0.00;0.00;;;;;15.78;46.15;102111.56;5073592;28;8868;-68
2022/04/10 06:47:56;;;;;;;;;0.00;0.00;;;;;15.76;46.11;102101.88;5072126;28;9487;-68
2022/04/10 06:50:21;;;;;;;;;0.00;0.00;;;;;15.77;46.24;102115.06;5073316;28;8799;-68
2022/04/10 06:52:46;;;;;;;;;1.00;0.00;;;;;15.77;46.17;102114.19;5072827;28;8772;-68
2022/04/10 06:55:12;;;;;;;;;0.00;0.00;;;;;15.77;46.10;102115.06;5072571;28;8954;-69
2022/04/10 06:57:37;;;;;;;;;0.00;0.00;;;;;15.78;46.15;102114.19;5073346;28;8795;-69
2022/04/10 07:00:03;;;;;;;;;0.00;0.00;;;;;15.80;46.14;102119.50;5072692;28;8867;-69
2022/04/10 07:02:28;;;;;;;;;0.00;0.00;;;;;15.81;45.98;102124.81;5072187;28;9471;-68
2022/04/10 07:04:53;;;;;;;;;0.67;0.00;;;;;15.81;46.06;102131.81;5073005;28;8760;-68
2022/04/10 07:07:18;;;;;;;;;0.00;0.00;;;;;15.76;46.28;102120.28;5073123;28;9575;-68
2022/04/10 07:09:44;;;;;;;;;0.00;0.00;;;;;15.80;45.95;102128.31;5071673;28;8847;-68
2022/04/10 07:12:09;;;;;;;;;0.00;0.00;;;;;15.80;46.11;102127.41;5072812;28;8806;-69
2022/04/10 07:14:35;;;;;;;;;0.00;0.00;;;;;15.79;46.28;102128.25;5072779;28;8764;-67
2022/04/10 07:17:00;;;;;;;;;0.00;0.00;;;;;15.84;46.30;102129.25;5071521;28;9523;-68
2022/04/10 07:19:28;;;;;;;;;0.00;0.00;;;;;15.83;46.23;102131.00;5072749;28;8784;-68
2022/04/10 07:24:36;;;;;;;;;0.00;0.00;;;;;15.83;46.24;102135.38;5072099;28;9152;-68
2022/04/10 07:27:02;;;;;;;;;0.00;0.00;;;;;15.86;46.45;102138.06;5072171;28;9369;-69
2022/04/10 07:29:27;;;;;;;;;0.00;0.00;;;;;15.84;46.17;102145.94;5072613;28;8764;-70
2022/04/10 07:31:52;;;;;;;;;0.00;0.00;;;;;15.83;46.27;102151.16;5071573;28;8787;-69
2022/04/10 07:34:20;;;;;;;;;0.00;0.00;;;;;15.86;46.23;102151.22;5072250;28;8767;-68
2022/04/10 07:36:48;;;;;;;;;0.67;0.00;;;;;15.87;46.24;102160.91;5072378;28;8882;-68
2022/04/10 07:39:14;;;;;;;;;0.00;0.00;;;;;15.88;46.53;102154.78;5071945;28;9140;-68
2022/04/10 07:41:39;;;;;;;;;0.00;0.00;;;;;15.86;46.25;102153.84;5072428;28;9180;-68
2022/04/10 07:44:04;;;;;;;;;1.00;0.00;;;;;15.84;46.56;102159.09;5071334;28;8759;-69
2022/04/10 07:49:14;;;;;;;;;0.00;0.00;;;;;15.89;46.45;102161.84;5072788;28;8755;-69
2022/04/10 07:51:39;;;;;;;;;0.00;0.00;;;;;15.88;46.44;102166.22;5071812;28;9352;-68
2022/04/10 07:54:05;;;;;;;;;0.00;0.00;;;;;15.89;46.35;102170.63;5071754;28;8783;-69
2022/04/10 07:56:30;;;;;;;;;0.00;0.00;;;;;15.90;46.34;102163.59;5072412;28;8791;-68
2022/04/10 07:58:55;;;;;;;;;0.00;0.00;;;;;15.92;46.18;102173.34;5071082;28;8898;-68
2022/04/10 08:01:20;;;;;;;;;1.00;0.00;;;;;15.92;46.54;102175.97;5071566;28;8776;-69
2022/04/10 08:03:51;;;;;;;;;0.00;0.00;;;;;16.01;46.30;102180.50;5071615;28;8748;-68
2022/04/10 08:06:17;;;;;;;;;1.00;0.00;;;;;16.03;46.14;102172.66;5071382;28;8798;-69
2022/04/10 08:08:42;;;;;;;;;0.00;0.00;;;;;15.99;46.36;102176.06;5071949;28;9345;-68
2022/04/10 08:11:07;;;;;;;;;1.00;0.00;;;;;16.02;46.18;102184.94;5071463;28;8905;-68
2022/04/10 08:13:33;;;;;;;;;0.00;0.00;;;;;16.03;46.38;102180.56;5070899;28;8791;-68
2022/04/10 08:15:58;;;;;;;;;1.67;0.00;;;;;16.04;46.33;102177.97;5071460;28;8910;-68
2022/04/10 08:18:24;;;;;;;;;0.00;0.00;;;;;16.07;46.51;102179.75;5071728;28;8796;-69
2022/04/10 08:20:50;;;;;;;;;0.00;0.00;;;;;16.05;46.10;102170.91;5070699;28;8780;-69
2022/04/10 08:23:15;;;;;;;;;0.00;0.00;;;;;16.04;46.08;102183.22;5071817;28;8764;-69
2022/04/10 08:25:41;;;;;;;;;0.00;0.00;;;;;16.08;46.02;102192.09;5071862;28;8771;-69
2022/04/10 08:28:06;;;;;;;;;0.00;0.00;;;;;16.08;46.22;102178.91;5070908;28;8898;-68
2022/04/10 08:30:31;;;;;;;;;0.00;0.00;;;;;16.16;45.85;102188.72;5071864;28;8788;-69
2022/04/10 08:32:58;;;;;;;;;1.00;0.00;;;;;16.17;46.33;102189.63;5071538;28;8755;-70
2022/04/10 08:35:24;;;;;;;;;0.00;0.00;;;;;16.18;46.24;102194.03;5069491;28;8763;-68
2022/04/10 08:37:49;;;;;;;;;0.00;0.00;;;;;16.17;46.14;102193.16;5070479;28;9267;-68
2022/04/10 08:40:14;;;;;;;;;0.00;0.00;;;;;16.17;46.52;102190.50;5070361;28;8958;-68
2022/04/10 08:42:39;;;;;;;;;0.00;0.00;;;;;16.19;46.36;102195.84;5071024;28;8914;-68
2022/04/10 08:45:09;;;;;;;;;0.00;0.00;;;;;16.23;46.31;102190.63;5070621;28;8792;-68
2022/04/10 08:47:36;;;;;;;;;0.00;0.00;;;;;16.19;46.13;102191.44;5070183;28;8788;-68
2022/04/10 08:50:01;;;;;;;;;0.00;0.00;;;;;16.24;46.19;102188.88;5070567;28;9253;-70
2022/04/10 08:52:28;;;;;;;;;0.00;0.00;;;;;16.25;46.26;102188.94;5069519;28;9174;-68
2022/04/10 08:54:53;;;;;;;;;0.00;0.00;;;;;16.27;46.19;102195.09;5069932;28;8880;-69
2022/04/10 08:57:18;;;;;;;;;0.00;0.00;;;;;16.28;46.29;102196.88;5069890;28;9435;-68
2022/04/10 08:59:44;;;;;;;;;0.00;0.00;;;;;16.27;46.13;102195.09;5070257;28;8823;-69
2022/04/10 09:02:11;;;;;;;;;0.00;0.00;;;;;16.28;46.20;102196.88;5068667;28;9598;-68
2022/04/10 09:04:37;;;;;;;;;1.00;0.00;;;;;16.31;46.25;102193.41;5069916;28;8783;-68
2022/04/10 09:07:07;;;;;;;;;0.00;0.00;;;;;16.31;46.23;102196.94;5069663;28;9813;-70
2022/04/10 09:09:35;;;;;;;;;0.00;0.00;;;;;16.36;46.06;102197.03;5069684;28;9171;-69
2022/04/10 09:12:01;;;;;;;;;0.00;0.00;;;;;16.36;46.04;102192.66;5068391;28;9258;-68
2022/04/10 09:14:38;;;;;;;;;0.00;0.00;;;;;16.38;46.19;102196.19;5070808;28;9390;-68
2022/04/10 09:17:15;;;;;;;;;0.33;0.00;;;;;16.35;45.91;102201.41;5068711;28;9315;-70
2022/04/10 09:19:44;;;;;;;;;0.00;0.00;;;;;16.36;46.21;102194.41;5070153;28;9223;-68
2022/04/10 09:22:27;;;;;;;;;0.00;0.00;;;;;16.34;46.46;102193.50;5069036;28;9259;-68
2022/04/10 09:25:14;;;;;;;;;0.00;0.00;;;;;16.35;46.40;102198.78;5062633;28;9409;-69
2022/04/10 09:27:40;;;;;;;;;0.00;0.00;;;;;16.36;46.15;102199.69;5070044;28;9307;-67
2022/04/10 09:30:19;;;;;;;;;0.67;0.67;;;;;16.40;46.02;102198.88;5069399;28;9256;-69
2022/04/10 09:32:48;;;;;;;;;0.00;0.00;;;;;16.40;46.34;102204.16;5068737;28;10070;-68
2022/04/10 09:35:16;;;;;;;;;0.00;0.00;;;;;16.42;45.81;102202.44;5070299;28;9346;-68
2022/04/10 09:37:55;;;;;;;;;0.00;0.00;;;;;16.41;46.16;102203.31;5069556;28;9418;-68
2022/04/10 09:40:26;;;;;;;;;0.00;0.00;;;;;16.43;45.99;102205.09;5069744;28;9363;-69
2022/04/10 09:43:12;;;;;;;;;0.00;0.00;;;;;16.47;45.87;102211.31;5070123;28;9260;-68
2022/04/10 09:45:43;;;;;;;;;0.00;0.00;;;;;16.46;46.19;102212.16;5069529;28;9380;-68
2022/04/10 09:48:19;;;;;;;;;0.00;0.00;;;;;16.46;46.27;102214.78;5069866;28;9459;-69
2022/04/10 09:50:45;;;;;;;;;0.00;0.00;;;;;16.46;46.22;102209.53;5068023;28;9485;-68
2022/04/10 09:53:11;;;;;;;;;0.33;0.00;;;;;16.43;46.00;102212.09;5069833;28;9227;-68
2022/04/10 09:55:41;;;;;;;;;0.00;0.00;;;;;16.43;46.05;102217.38;5069564;28;9328;-67
2022/04/10 09:58:10;;;;;;;;;0.00;0.00;;;;;16.45;45.92;102220.94;5068763;28;9285;-68
2022/04/10 10:00:45;;;;;;;;;0.00;0.00;;;;;16.49;45.89;102214.00;5068744;28;9371;-69
2022/04/10 10:03:10;;;;;;;;;0.00;0.00;;;;;16.54;45.75;102218.47;5069744;28;9281;-68
2022/04/10 10:05:37;;;;;;;;;0.00;0.00;;;;;16.52;46.08;102222.84;5068994;28;9248;-67
2022/04/10 10:08:04;;;;;;;;;0.00;0.00;;;;;16.54;46.08;102222.84;5069298;28;8800;-69
2022/04/10 10:10:31;;;;;;;;;0.00;0.00;;;;;16.55;47.12;102220.25;5071867;28;9264;-69
2022/04/10 10:13:00;;;;;;;;;1.00;0.00;;;;;16.81;52.67;102220.78;5073433;28;9208;-70
2022/04/10 10:15:26;;;;;;;;;0.00;0.00;;;;;16.81;50.73;102208.47;5074662;28;9282;-68
2022/04/10 10:17:51;;;;;;;;;0.00;0.00;;;;;16.90;53.67;102210.41;5074339;28;9332;-69
2022/04/10 10:20:19;;;;;;;;;0.00;0.00;;;;;16.94;52.51;102209.59;5073788;28;9449;-67
2022/04/10 10:22:47;;;;;;;;;0.00;0.00;;;;;17.00;53.12;102211.44;5074396;28;8763;-67
2022/04/10 10:25:19;;;;;;;;;1.00;0.00;;;;;16.98;54.93;102210.53;5074357;28;9283;-66
2022/04/10 10:28:21;;;;;;;;;1.00;0.00;;;;;17.03;56.73;102212.38;5073798;28;9324;-67
2022/04/10 10:31:08;;;;;;;;;1.00;0.00;;;;;17.16;52.95;102202.91;5073252;28;9328;-68
2022/04/10 10:33:37;;;;;;;;;0.00;0.00;;;;;17.07;55.32;102216.84;5073872;28;10148;-68
2022/04/10 10:36:07;;;;;;;;;1.00;0.00;;;;;17.02;55.24;102222.91;5070767;28;9490;-69
2022/04/10 10:38:33;;;;;;;;;1.00;0.00;;;;;17.00;54.43;102219.34;5071055;28;9513;-69
2022/04/10 10:41:17;;;;;;;;;0.00;0.00;;;;;17.02;54.63;102222.91;5072664;28;9399;-68
2022/04/10 10:43:42;;;;;;;;;1.00;1.00;;;;;16.98;54.66;102221.09;5053743;28;8878;-68
2022/04/10 10:46:21;;;;;;;;;1.25;0.00;;;;;17.07;54.42;102227.41;5053122;28;10107;-69
2022/04/10 10:48:46;;;;;;;;;0.00;0.00;;;;;16.77;52.19;102222.47;5051912;28;8778;-69
2022/04/10 10:51:12;;;;;;;;;0.00;0.00;;;;;16.51;50.60;102223.69;5053593;28;10057;-69
2022/04/10 10:54:04;;;;;;;;;1.00;0.00;;;;;16.51;50.35;102223.69;5057364;28;8929;-68
2022/04/10 10:56:31;;;;;;;;;0.00;0.00;;;;;16.70;49.80;102224.97;5072940;28;8836;-69
2022/04/10 10:59:19;;;;;;;;;1.00;0.00;;;;;16.53;49.14;102223.75;5072604;28;9277;-69
2022/04/10 11:02:06;;;;;;;;;0.00;0.00;;;;;16.50;48.28;102227.19;5072196;28;9246;-70
2022/04/10 11:04:42;;;;;;;;;0.00;0.00;;;;;16.48;48.30;102220.13;5072364;28;9261;-69
2022/04/10 11:07:13;;;;;;;;;0.67;0.00;;;;;16.46;47.72;102220.06;5072759;28;9585;-68
2022/04/10 11:09:58;;;;;;;;;1.00;0.00;;;;;16.60;47.16;102218.66;5071472;28;9323;-69
2022/04/10 11:12:47;;;;;;;;;1.00;0.00;;;;;16.80;47.31;102209.34;5072647;28;9275;-69
2022/04/10 11:15:20;;;;;;;;;0.00;0.00;;;;;16.78;47.24;102208.44;5071394;28;9287;-68
2022/04/10 11:17:46;;;;;;;;;0.00;0.00;;;;;16.62;46.91;102200.19;5072873;28;9200;-69
2022/04/10 11:20:12;;;;;;;;;0.00;0.00;;;;;16.66;46.21;102210.84;5072084;28;9439;-69
2022/04/10 11:22:49;;;;;;;;;0.00;0.00;;;;;16.76;46.71;102202.22;5070604;28;9253;-69
2022/04/10 11:25:41;;;;;;;;;0.00;0.00;;;;;16.87;46.38;102197.16;5072468;28;9149;-69
2022/04/10 11:28:07;;;;;;;;;0.00;0.00;;;;;16.93;45.93;102189.34;5067193;28;9217;-69
2022/04/10 11:30:38;;;;;;;;;0.00;0.00;;;;;17.01;46.05;102187.72;5072075;28;9191;-70
2022/04/10 11:33:06;;;;;;;;;0.00;0.00;;;;;17.06;46.04;102179.91;5072944;28;9254;-69
2022/04/10 11:35:34;;;;;;;;;1.00;0.00;;;;;17.09;45.48;102180.81;5073771;28;9323;-69
2022/04/10 11:38:06;;;;;;;;;1.00;0.00;;;;;17.09;45.37;102178.19;5072117;28;9364;-68
2022/04/10 11:40:33;;;;;;;;;1.00;0.00;;;;;17.19;45.16;102180.09;5072945;28;9246;-68